PWSweather.com
Personal Weather Stations
Station Observations
IMAZOWIE6
WarszawaPL

WarszawaPL

Lat: 52.27957, Lon: 21.05489

Elevation: 100

Station Type: WS1080

http://stacjapogody.waw.pl/

High Low Average
Temperature 52.3°F11.3°C 37.4°F3.0°C 44.1°F6.7°C
Dew Point -1.5°F-18.6°C -169.1°F-111.7°C -134.3°F-92.4°C
Winds 6.2 mph 10.0 kmh Calm Calm 3.0 mph N4.8 kmh N
Wind Gusts 11.6 mph18.7 kmh 0.6 mph1.0 kmh 6.0 mph9.7 kmh
Humidity 16% 10% 14%
Pressure 29.36 in994.2 mb 29.09 in985.1 mb -
Precipitation 0.00 in0.0 mm - -
Hour Temp Dew Point Humidity Winds Wind Gusts Pressure Precip Precip Rate Daily Precip Total
12:06 AM 42.3°F5.7°C -168.6°F-111.4°C - 1.4 mph N2.3 kmh N 3.4 mph5.5 kmh 29.27 in991.2 mb 0.00 in0.0 mm 0.00 in0.0 mm 0.00 in0.0 mm
12:21 AM 42.1°F5.6°C -168.6°F-111.4°C - 2.0 mph N3.2 kmh N 4.8 mph7.7 kmh 29.27 in991.2 mb 0.00 in0.0 mm 0.00 in0.0 mm 0.00 in0.0 mm
12:36 AM 42.4°F5.8°C -168.6°F-111.4°C - 1.4 mph N2.3 kmh N 2.0 mph3.2 kmh 29.27 in991.2 mb 0.00 in0.0 mm 0.00 in0.0 mm 0.00 in0.0 mm
12:51 AM 42.4°F5.8°C -168.6°F-111.4°C - 1.4 mph N2.3 kmh N 4.0 mph6.4 kmh 29.27 in991.2 mb 0.00 in0.0 mm 0.00 in0.0 mm 0.00 in0.0 mm
01:06 AM 42.4°F5.8°C -168.6°F-111.4°C - 1.4 mph N2.3 kmh N 4.0 mph6.4 kmh 29.27 in991.2 mb 0.00 in0.0 mm 0.00 in0.0 mm 0.00 in0.0 mm
01:21 AM 42.3°F5.7°C -168.6°F-111.4°C - 2.8 mph N4.5 kmh N 6.8 mph10.9 kmh 29.26 in990.9 mb 0.00 in0.0 mm 0.00 in0.0 mm 0.00 in0.0 mm
01:36 AM 41.7°F5.4°C -168.6°F-111.4°C - 2.8 mph N4.5 kmh N 4.8 mph7.7 kmh 29.27 in991.2 mb 0.00 in0.0 mm 0.00 in0.0 mm 0.00 in0.0 mm
01:51 AM 41.5°F5.3°C -168.6°F-111.4°C - 2.0 mph N3.2 kmh N 4.0 mph6.4 kmh 29.26 in990.9 mb 0.00 in0.0 mm 0.00 in0.0 mm 0.00 in0.0 mm
02:06 AM 41.4°F5.2°C -168.7°F-111.5°C - 2.0 mph N3.2 kmh N 4.8 mph7.7 kmh 29.27 in991.2 mb 0.00 in0.0 mm 0.00 in0.0 mm 0.00 in0.0 mm
02:21 AM 41.0°F5.0°C -168.7°F-111.5°C - 3.4 mph N5.5 kmh N 4.8 mph7.7 kmh 29.26 in990.9 mb 0.00 in0.0 mm 0.00 in0.0 mm 0.00 in0.0 mm
02:36 AM 40.6°F4.8°C -168.7°F-111.5°C - 1.4 mph N2.3 kmh N 2.8 mph4.5 kmh 29.27 in991.2 mb 0.00 in0.0 mm 0.00 in0.0 mm 0.00 in0.0 mm
02:51 AM 40.1°F4.5°C -168.8°F-111.6°C - 1.4 mph N2.3 kmh N 4.0 mph6.4 kmh 29.26 in990.9 mb 0.00 in0.0 mm 0.00 in0.0 mm 0.00 in0.0 mm
03:06 AM 39.7°F4.3°C -168.8°F-111.6°C - 3.4 mph N5.5 kmh N 5.4 mph8.7 kmh 29.26 in990.9 mb 0.00 in0.0 mm 0.00 in0.0 mm 0.00 in0.0 mm
03:21 AM 39.7°F4.3°C -168.8°F-111.6°C - 2.0 mph N3.2 kmh N 4.0 mph6.4 kmh 29.25 in990.5 mb 0.00 in0.0 mm 0.00 in0.0 mm 0.00 in0.0 mm
03:36 AM 39.7°F4.3°C -168.8°F-111.6°C - 2.0 mph N3.2 kmh N 4.0 mph6.4 kmh 29.26 in990.9 mb 0.00 in0.0 mm 0.00 in0.0 mm 0.00 in0.0 mm
03:51 AM 39.6°F4.2°C -168.8°F-111.6°C - 1.4 mph N2.3 kmh N 4.0 mph6.4 kmh 29.26 in990.9 mb 0.00 in0.0 mm 0.00 in0.0 mm 0.00 in0.0 mm
04:06 AM 39.7°F4.3°C -168.8°F-111.6°C - 1.4 mph N2.3 kmh N 3.4 mph5.5 kmh 29.26 in990.9 mb 0.00 in0.0 mm 0.00 in0.0 mm 0.00 in0.0 mm
04:21 AM 39.9°F4.4°C -168.8°F-111.6°C - 1.4 mph N2.3 kmh N 2.8 mph4.5 kmh 29.26 in990.9 mb 0.00 in0.0 mm 0.00 in0.0 mm 0.00 in0.0 mm
04:36 AM 40.3°F4.6°C -168.8°F-111.6°C - 2.0 mph N3.2 kmh N 4.0 mph6.4 kmh 29.26 in990.9 mb 0.00 in0.0 mm 0.00 in0.0 mm 0.00 in0.0 mm
04:51 AM 39.9°F4.4°C -168.8°F-111.6°C - 1.4 mph N2.3 kmh N 2.8 mph4.5 kmh 29.26 in990.9 mb 0.00 in0.0 mm 0.00 in0.0 mm 0.00 in0.0 mm
05:06 AM 39.6°F4.2°C -168.8°F-111.6°C - Calm Calm 1.4 mph2.3 kmh 29.26 in990.9 mb 0.00 in0.0 mm 0.00 in0.0 mm 0.00 in0.0 mm
05:21 AM 39.2°F4.0°C -168.9°F-111.6°C - 0.6 mph N1.0 kmh N 2.8 mph4.5 kmh 29.26 in990.9 mb 0.00 in0.0 mm 0.00 in0.0 mm 0.00 in0.0 mm
05:36 AM 38.5°F3.6°C -169.0°F-111.7°C - 0.6 mph N1.0 kmh N 2.0 mph3.2 kmh 29.26 in990.9 mb 0.00 in0.0 mm 0.00 in0.0 mm 0.00 in0.0 mm
05:51 AM 38.5°F3.6°C -169.0°F-111.7°C - Calm Calm 1.4 mph2.3 kmh 29.26 in990.9 mb 0.00 in0.0 mm 0.00 in0.0 mm 0.00 in0.0 mm
06:06 AM 38.1°F3.4°C -169.0°F-111.7°C - Calm Calm 1.4 mph2.3 kmh 29.26 in990.9 mb 0.00 in0.0 mm 0.00 in0.0 mm 0.00 in0.0 mm
06:21 AM 37.6°F3.1°C -169.0°F-111.7°C - 0.6 mph N1.0 kmh N 4.0 mph6.4 kmh 29.26 in990.9 mb 0.00 in0.0 mm 0.00 in0.0 mm 0.00 in0.0 mm
06:36 AM 37.4°F3.0°C -169.1°F-111.7°C - Calm Calm 1.4 mph2.3 kmh 29.26 in990.9 mb 0.00 in0.0 mm 0.00 in0.0 mm 0.00 in0.0 mm
06:51 AM 37.9°F3.3°C -169.0°F-111.7°C - Calm Calm 1.4 mph2.3 kmh 29.26 in990.9 mb 0.00 in0.0 mm 0.00 in0.0 mm 0.00 in0.0 mm
07:06 AM 39.0°F3.9°C -168.9°F-111.6°C - Calm Calm 0.6 mph1.0 kmh 29.26 in990.9 mb 0.00 in0.0 mm 0.00 in0.0 mm 0.00 in0.0 mm
07:21 AM 43.5°F6.4°C -168.4°F-111.3°C - 1.4 mph N2.3 kmh N 3.4 mph5.5 kmh 29.26 in990.9 mb 0.00 in0.0 mm 0.00 in0.0 mm 0.00 in0.0 mm
07:36 AM 46.6°F8.1°C -168.1°F-111.2°C - Calm Calm 2.0 mph3.2 kmh 29.26 in990.9 mb 0.00 in0.0 mm 0.00 in0.0 mm 0.00 in0.0 mm
07:51 AM 48.2°F9.0°C -168.0°F-111.1°C - 1.4 mph N2.3 kmh N 5.4 mph8.7 kmh 29.26 in990.9 mb 0.00 in0.0 mm 0.00 in0.0 mm 0.00 in0.0 mm
08:06 AM 48.2°F9.0°C -168.0°F-111.1°C - 1.4 mph N2.3 kmh N 4.8 mph7.7 kmh 29.26 in990.9 mb 0.00 in0.0 mm 0.00 in0.0 mm 0.00 in0.0 mm
08:21 AM 49.6°F9.8°C -167.8°F-111.0°C - 0.6 mph N1.0 kmh N 2.8 mph4.5 kmh 29.26 in990.9 mb 0.00 in0.0 mm 0.00 in0.0 mm 0.00 in0.0 mm
08:36 AM 50.7°F10.4°C -167.7°F-110.9°C - 0.6 mph N1.0 kmh N 2.8 mph4.5 kmh 29.25 in990.5 mb 0.00 in0.0 mm 0.00 in0.0 mm 0.00 in0.0 mm
08:51 AM 48.6°F9.2°C -167.9°F-111.1°C - 0.6 mph N1.0 kmh N 2.8 mph4.5 kmh 29.24 in990.2 mb 0.00 in0.0 mm 0.00 in0.0 mm 0.00 in0.0 mm
09:06 AM 49.1°F9.5°C -167.9°F-111.1°C - 1.4 mph N2.3 kmh N 5.4 mph8.7 kmh 29.24 in990.2 mb 0.00 in0.0 mm 0.00 in0.0 mm 0.00 in0.0 mm
09:16 AM 49.1°F9.5°C -167.9°F-111.1°C - 1.4 mph N2.3 kmh N 5.4 mph8.7 kmh 29.24 in990.2 mb 0.00 in0.0 mm 0.00 in0.0 mm 0.00 in0.0 mm
09:31 AM 49.1°F9.5°C -167.9°F-111.1°C - 1.4 mph N2.3 kmh N 5.4 mph8.7 kmh 29.24 in990.2 mb 0.00 in0.0 mm 0.00 in0.0 mm 0.00 in0.0 mm
09:51 AM 49.5°F9.7°C -167.9°F-111.1°C - 2.0 mph N3.2 kmh N 6.2 mph10.0 kmh 29.21 in989.2 mb 0.00 in0.0 mm 0.00 in0.0 mm 0.00 in0.0 mm
10:06 AM 52.2°F11.2°C -167.6°F-110.9°C - 0.6 mph N1.0 kmh N 2.8 mph4.5 kmh 29.20 in988.8 mb 0.00 in0.0 mm 0.00 in0.0 mm 0.00 in0.0 mm
10:21 AM 50.4°F10.2°C -167.8°F-111.0°C - 2.8 mph N4.5 kmh N 4.8 mph7.7 kmh 29.20 in988.8 mb 0.00 in0.0 mm 0.00 in0.0 mm 0.00 in0.0 mm
10:36 AM 50.5°F10.3°C -167.7°F-110.9°C - 2.8 mph N4.5 kmh N 4.8 mph7.7 kmh 29.19 in988.5 mb 0.00 in0.0 mm 0.00 in0.0 mm 0.00 in0.0 mm
10:51 AM 51.1°F10.6°C -167.7°F-110.9°C - 2.8 mph N4.5 kmh N 5.4 mph8.7 kmh 29.18 in988.1 mb 0.00 in0.0 mm 0.00 in0.0 mm 0.00 in0.0 mm
11:06 AM 51.4°F10.8°C -167.7°F-110.9°C - 4.8 mph N7.7 kmh N 7.4 mph11.9 kmh 29.18 in988.1 mb 0.00 in0.0 mm 0.00 in0.0 mm 0.00 in0.0 mm
11:21 AM 50.5°F10.3°C -167.7°F-110.9°C - 4.8 mph N7.7 kmh N 9.6 mph15.4 kmh 29.17 in987.8 mb 0.00 in0.0 mm 0.00 in0.0 mm 0.00 in0.0 mm
11:36 AM 50.9°F10.5°C -167.7°F-110.9°C - 4.8 mph N7.7 kmh N 8.2 mph13.2 kmh 29.17 in987.8 mb 0.00 in0.0 mm 0.00 in0.0 mm 0.00 in0.0 mm
11:51 AM 50.2°F10.1°C -167.8°F-111.0°C - 4.8 mph N7.7 kmh N 7.4 mph11.9 kmh 29.16 in987.5 mb 0.01 in0.3 mm 0.05 in1.3 mm 0.01 in0.3 mm
12:06 PM 50.5°F10.3°C -167.7°F-110.9°C - 4.0 mph N6.4 kmh N 7.4 mph11.9 kmh 29.16 in987.5 mb 0.01 in0.3 mm 0.00 in0.0 mm 0.01 in0.3 mm
12:21 PM 50.7°F10.4°C -167.7°F-110.9°C - 3.4 mph N5.5 kmh N 6.2 mph10.0 kmh 29.15 in987.1 mb 0.00 in0.0 mm 0.00 in0.0 mm 0.01 in0.3 mm
12:36 PM 49.1°F9.5°C -167.9°F-111.1°C - 4.0 mph N6.4 kmh N 6.2 mph10.0 kmh 29.15 in987.1 mb 0.00 in0.0 mm 0.00 in0.0 mm 0.01 in0.3 mm
12:51 PM 48.0°F8.9°C -168.0°F-111.1°C - 2.8 mph N4.5 kmh N 6.2 mph10.0 kmh 29.15 in987.1 mb 0.01 in0.3 mm 0.05 in1.3 mm 0.02 in0.5 mm
01:06 PM 48.4°F9.1°C -168.0°F-111.1°C - 3.4 mph N5.5 kmh N 8.2 mph13.2 kmh 29.14 in986.8 mb 0.01 in0.3 mm 0.00 in0.0 mm 0.02 in0.5 mm
01:21 PM 49.1°F9.5°C -167.9°F-111.1°C - 2.0 mph N3.2 kmh N 3.4 mph5.5 kmh 29.14 in986.8 mb 0.00 in0.0 mm 0.00 in0.0 mm 0.02 in0.5 mm
01:36 PM 50.0°F10.0°C -167.8°F-111.0°C - 4.0 mph N6.4 kmh N 7.4 mph11.9 kmh 29.13 in986.5 mb 0.00 in0.0 mm 0.00 in0.0 mm 0.02 in0.5 mm
01:51 PM 51.6°F10.9°C -167.6°F-110.9°C - 1.4 mph N2.3 kmh N 2.8 mph4.5 kmh 29.12 in986.1 mb 0.00 in0.0 mm 0.00 in0.0 mm 0.02 in0.5 mm
02:06 PM 52.0°F11.1°C -167.6°F-110.9°C - 3.4 mph N5.5 kmh N 5.4 mph8.7 kmh 29.10 in985.4 mb 0.00 in0.0 mm 0.00 in0.0 mm 0.02 in0.5 mm
02:21 PM 52.3°F11.3°C -167.6°F-110.9°C - 2.8 mph N4.5 kmh N 4.8 mph7.7 kmh 29.10 in985.4 mb 0.00 in0.0 mm 0.00 in0.0 mm 0.02 in0.5 mm
02:36 PM 51.6°F10.9°C -167.6°F-110.9°C - 2.8 mph N4.5 kmh N 5.4 mph8.7 kmh 29.09 in985.1 mb 0.00 in0.0 mm 0.00 in0.0 mm 0.02 in0.5 mm
02:51 PM 51.8°F11.0°C -167.6°F-110.9°C - 4.8 mph N7.7 kmh N 7.4 mph11.9 kmh 29.09 in985.1 mb 0.00 in0.0 mm 0.00 in0.0 mm 0.02 in0.5 mm
03:06 PM 52.2°F11.2°C -167.6°F-110.9°C - 6.2 mph N10.0 kmh N 10.8 mph17.4 kmh 29.13 in986.5 mb 0.00 in0.0 mm 0.00 in0.0 mm 0.02 in0.5 mm
03:21 PM 45.5°F7.5°C -168.3°F-111.3°C - 2.0 mph N3.2 kmh N 6.2 mph10.0 kmh 29.13 in986.5 mb 0.02 in0.5 mm 0.10 in2.5 mm 0.05 in1.3 mm
03:36 PM 43.9°F6.6°C -168.4°F-111.3°C - Calm Calm 3.4 mph5.5 kmh 29.12 in986.1 mb 0.04 in1.0 mm 0.05 in1.3 mm 0.06 in1.5 mm
03:51 PM 43.3°F6.3°C -168.5°F-111.4°C - 1.4 mph N2.3 kmh N 4.0 mph6.4 kmh 29.13 in986.5 mb 0.04 in1.0 mm 0.00 in0.0 mm 0.06 in1.5 mm
04:06 PM 43.2°F6.2°C -168.5°F-111.4°C - 3.4 mph N5.5 kmh N 6.8 mph10.9 kmh 29.14 in986.8 mb 0.04 in1.0 mm 0.00 in0.0 mm 0.06 in1.5 mm
04:21 PM 43.2°F6.2°C -168.5°F-111.4°C - 4.0 mph N6.4 kmh N 5.4 mph8.7 kmh 29.15 in987.1 mb 0.00 in0.0 mm 0.00 in0.0 mm 0.06 in1.5 mm
04:36 PM 43.3°F6.3°C -168.5°F-111.4°C - 4.8 mph N7.7 kmh N 11.6 mph18.7 kmh 29.14 in986.8 mb 0.00 in0.0 mm 0.00 in0.0 mm 0.06 in1.5 mm
04:51 PM 43.5°F6.4°C -168.4°F-111.3°C - 4.8 mph N7.7 kmh N 9.6 mph15.4 kmh 29.14 in986.8 mb 0.00 in0.0 mm 0.00 in0.0 mm 0.06 in1.5 mm
05:06 PM 43.9°F6.6°C -168.4°F-111.3°C - 6.2 mph N10.0 kmh N 10.2 mph16.4 kmh 29.15 in987.1 mb 0.00 in0.0 mm 0.00 in0.0 mm 0.06 in1.5 mm
05:21 PM 43.9°F6.6°C -168.4°F-111.3°C - 4.8 mph N7.7 kmh N 8.8 mph14.2 kmh 29.16 in987.5 mb 0.00 in0.0 mm 0.00 in0.0 mm 0.06 in1.5 mm
05:36 PM 43.5°F6.4°C -168.4°F-111.3°C - 4.0 mph N6.4 kmh N 8.2 mph13.2 kmh 29.17 in987.8 mb 0.00 in0.0 mm 0.00 in0.0 mm 0.06 in1.5 mm
05:51 PM 43.7°F6.5°C -168.4°F-111.3°C - 3.4 mph N5.5 kmh N 6.8 mph10.9 kmh 29.18 in988.1 mb 0.00 in0.0 mm 0.00 in0.0 mm 0.06 in1.5 mm
06:06 PM 43.5°F6.4°C -168.4°F-111.3°C - 6.2 mph N10.0 kmh N 11.6 mph18.7 kmh 29.19 in988.5 mb 0.00 in0.0 mm 0.00 in0.0 mm 0.06 in1.5 mm
06:21 PM 42.3°F5.7°C -168.6°F-111.4°C - 2.8 mph N4.5 kmh N 6.8 mph10.9 kmh 29.20 in988.8 mb 0.02 in0.5 mm 0.10 in2.5 mm 0.09 in2.3 mm
06:36 PM 41.5°F5.3°C -168.6°F-111.4°C - 5.4 mph N8.7 kmh N 10.8 mph17.4 kmh 29.20 in988.8 mb 0.04 in1.0 mm 0.05 in1.3 mm 0.10 in2.5 mm
06:51 PM 41.5°F5.3°C -168.6°F-111.4°C - 4.8 mph N7.7 kmh N 9.6 mph15.4 kmh 29.20 in988.8 mb 0.05 in1.3 mm 0.05 in1.3 mm 0.11 in2.8 mm
07:06 PM 41.2°F5.1°C -11.3°F-24.1°C 10% 5.4 mph N8.7 kmh N 8.8 mph14.2 kmh 29.21 in989.2 mb 0.05 in1.3 mm 0.00 in0.0 mm 0.11 in2.8 mm
07:21 PM 41.0°F5.0°C -9.6°F-23.1°C 11% 3.4 mph N5.5 kmh N 6.8 mph10.9 kmh 29.23 in989.8 mb 0.01 in0.3 mm 0.00 in0.0 mm 0.11 in2.8 mm
07:36 PM 40.8°F4.9°C -8.0°F-22.2°C 12% 4.8 mph N7.7 kmh N 10.8 mph17.4 kmh 29.24 in990.2 mb 0.01 in0.3 mm 0.00 in0.0 mm 0.11 in2.8 mm
07:51 PM 40.8°F4.9°C -6.3°F-21.3°C 13% 4.8 mph N7.7 kmh N 7.4 mph11.9 kmh 29.24 in990.2 mb 0.02 in0.5 mm 0.05 in1.3 mm 0.12 in3.0 mm
08:06 PM 40.6°F4.8°C -5.0°F-20.6°C 14% 2.8 mph N4.5 kmh N 4.8 mph7.7 kmh 29.26 in990.9 mb 0.02 in0.5 mm 0.00 in0.0 mm 0.12 in3.0 mm
08:21 PM 40.6°F4.8°C -3.6°F-19.8°C 15% 4.8 mph N7.7 kmh N 9.6 mph15.4 kmh 29.26 in990.9 mb 0.00 in0.0 mm 0.00 in0.0 mm 0.12 in3.0 mm
08:36 PM 40.8°F4.9°C -3.4°F-19.7°C 15% 3.4 mph N5.5 kmh N 6.2 mph10.0 kmh 29.27 in991.2 mb 0.00 in0.0 mm 0.00 in0.0 mm 0.12 in3.0 mm
08:51 PM 40.5°F4.7°C -3.7°F-19.8°C 15% 4.0 mph N6.4 kmh N 8.8 mph14.2 kmh 29.28 in991.5 mb 0.00 in0.0 mm 0.00 in0.0 mm 0.12 in3.0 mm
09:06 PM 40.6°F4.8°C -3.6°F-19.8°C 15% 2.8 mph N4.5 kmh N 5.4 mph8.7 kmh 29.28 in991.5 mb 0.00 in0.0 mm 0.00 in0.0 mm 0.12 in3.0 mm
09:21 PM 40.5°F4.7°C -3.7°F-19.8°C 15% 3.4 mph N5.5 kmh N 6.8 mph10.9 kmh 29.29 in991.9 mb 0.00 in0.0 mm 0.00 in0.0 mm 0.12 in3.0 mm
09:36 PM 41.2°F5.1°C -1.8°F-18.8°C 16% 2.8 mph N4.5 kmh N 5.4 mph8.7 kmh 29.30 in992.2 mb 0.00 in0.0 mm 0.00 in0.0 mm 0.12 in3.0 mm
09:51 PM 41.5°F5.3°C -1.5°F-18.6°C 16% 2.0 mph N3.2 kmh N 4.0 mph6.4 kmh 29.31 in992.6 mb 0.00 in0.0 mm 0.00 in0.0 mm 0.12 in3.0 mm
10:06 PM 41.4°F5.2°C -1.6°F-18.7°C 16% 4.8 mph N7.7 kmh N 9.6 mph15.4 kmh 29.31 in992.6 mb 0.00 in0.0 mm 0.00 in0.0 mm 0.12 in3.0 mm
10:21 PM 41.7°F5.4°C -2.7°F-19.3°C 15% 4.0 mph N6.4 kmh N 6.2 mph10.0 kmh 29.32 in992.9 mb 0.00 in0.0 mm 0.00 in0.0 mm 0.12 in3.0 mm
10:36 PM 41.9°F5.5°C -4.0°F-20.0°C 14% 4.0 mph N6.4 kmh N 8.2 mph13.2 kmh 29.33 in993.2 mb 0.00 in0.0 mm 0.00 in0.0 mm 0.12 in3.0 mm
10:51 PM 41.9°F5.5°C -4.0°F-20.0°C 14% 3.4 mph N5.5 kmh N 5.4 mph8.7 kmh 29.34 in993.6 mb 0.00 in0.0 mm 0.00 in0.0 mm 0.12 in3.0 mm
11:06 PM 41.9°F5.5°C -4.0°F-20.0°C 14% 1.4 mph N2.3 kmh N 5.4 mph8.7 kmh 29.34 in993.6 mb 0.00 in0.0 mm 0.00 in0.0 mm 0.12 in3.0 mm
11:21 PM 41.9°F5.5°C -5.5°F-20.8°C 13% 3.4 mph N5.5 kmh N 5.4 mph8.7 kmh 29.35 in993.9 mb 0.00 in0.0 mm 0.00 in0.0 mm 0.12 in3.0 mm
11:36 PM 42.1°F5.6°C -7.0°F-21.7°C 12% 3.4 mph N5.5 kmh N 6.8 mph10.9 kmh 29.36 in994.2 mb 0.00 in0.0 mm 0.00 in0.0 mm 0.12 in3.0 mm
11:51 PM 42.1°F5.6°C -8.7°F-22.6°C 11% 2.8 mph N4.5 kmh N 4.8 mph7.7 kmh 29.36 in994.2 mb 0.00 in0.0 mm 0.00 in0.0 mm 0.12 in3.0 mm